sensor_id;sensor_type;location;lat;lon;timestamp;P1;durP1;ratioP1;P2;durP2;ratioP2
51838;SDS011;37886;53.174;6.368;2023-07-29T00:01:31;765.88;;;683.10;;
51838;SDS011;37886;53.174;6.368;2023-07-29T00:03:58;873.55;;;714.60;;
51838;SDS011;37886;53.174;6.368;2023-07-29T00:06:24;813.55;;;684.47;;
51838;SDS011;37886;53.174;6.368;2023-07-29T00:08:50;761.88;;;677.53;;
51838;SDS011;37886;53.174;6.368;2023-07-29T00:11:15;892.80;;;717.92;;
51838;SDS011;37886;53.174;6.368;2023-07-29T00:13:41;846.28;;;699.60;;
51838;SDS011;37886;53.174;6.368;2023-07-29T00:16:07;828.03;;;694.17;;
51838;SDS011;37886;53.174;6.368;2023-07-29T00:18:32;798.42;;;677.42;;
51838;SDS011;37886;53.174;6.368;2023-07-29T00:20:58;770.30;;;671.58;;
51838;SDS011;37886;53.174;6.368;2023-07-29T00:23:24;752.72;;;664.28;;
51838;SDS011;37886;53.174;6.368;2023-07-29T00:25:49;799.97;;;698.30;;
51838;SDS011;37886;53.174;6.368;2023-07-29T00:28:15;758.35;;;673.83;;
51838;SDS011;37886;53.174;6.368;2023-07-29T00:30:41;736.92;;;659.25;;
51838;SDS011;37886;53.174;6.368;2023-07-29T00:33:07;742.58;;;661.40;;
51838;SDS011;37886;53.174;6.368;2023-07-29T00:35:32;721.28;;;646.90;;
51838;SDS011;37886;53.174;6.368;2023-07-29T00:37:59;881.90;;;712.00;;
51838;SDS011;37886;53.174;6.368;2023-07-29T00:40:25;757.88;;;675.20;;
51838;SDS011;37886;53.174;6.368;2023-07-29T00:42:53;736.10;;;657.53;;
51838;SDS011;37886;53.174;6.368;2023-07-29T00:45:19;735.97;;;657.38;;
51838;SDS011;37886;53.174;6.368;2023-07-29T00:47:44;717.53;;;641.22;;
51838;SDS011;37886;53.174;6.368;2023-07-29T00:50:11;798.45;;;689.38;;
51838;SDS011;37886;53.174;6.368;2023-07-29T00:52:38;728.38;;;652.28;;
51838;SDS011;37886;53.174;6.368;2023-07-29T00:55:04;756.85;;;676.13;;
51838;SDS011;37886;53.174;6.368;2023-07-29T00:57:31;723.72;;;650.05;;
51838;SDS011;37886;53.174;6.368;2023-07-29T00:59:58;710.83;;;634.63;;
51838;SDS011;37886;53.174;6.368;2023-07-29T01:02:25;737.67;;;660.42;;
51838;SDS011;37886;53.174;6.368;2023-07-29T01:04:55;731.15;;;656.15;;
51838;SDS011;37886;53.174;6.368;2023-07-29T01:10:12;752.03;;;671.80;;
51838;SDS011;37886;53.174;6.368;2023-07-29T01:12:54;767.60;;;682.40;;
51838;SDS011;37886;53.174;6.368;2023-07-29T01:18:42;742.35;;;666.00;;
51838;SDS011;37886;53.174;6.368;2023-07-29T01:21:12;744.87;;;667.77;;
51838;SDS011;37886;53.174;6.368;2023-07-29T01:23:39;739.60;;;660.60;;
51838;SDS011;37886;53.174;6.368;2023-07-29T01:26:05;779.25;;;681.72;;
51838;SDS011;37886;53.174;6.368;2023-07-29T01:28:30;751.42;;;668.28;;
51838;SDS011;37886;53.174;6.368;2023-07-29T01:31:05;753.72;;;669.80;;
51838;SDS011;37886;53.174;6.368;2023-07-29T01:33:42;800.75;;;692.78;;
51838;SDS011;37886;53.174;6.368;2023-07-29T01:36:22;842.75;;;714.08;;
51838;SDS011;37886;53.174;6.368;2023-07-29T01:38:53;799.42;;;707.45;;
51838;SDS011;37886;53.174;6.368;2023-07-29T01:41:21;721.10;;;646.63;;
51838;SDS011;37886;53.174;6.368;2023-07-29T01:43:49;757.85;;;675.58;;
51838;SDS011;37886;53.174;6.368;2023-07-29T01:46:15;710.85;;;637.20;;
51838;SDS011;37886;53.174;6.368;2023-07-29T01:48:41;784.53;;;687.75;;
51838;SDS011;37886;53.174;6.368;2023-07-29T01:51:07;754.67;;;667.70;;
51838;SDS011;37886;53.174;6.368;2023-07-29T01:53:34;830.97;;;674.17;;
51838;SDS011;37886;53.174;6.368;2023-07-29T01:56:00;854.03;;;688.42;;
51838;SDS011;37886;53.174;6.368;2023-07-29T01:58:26;878.00;;;714.95;;
51838;SDS011;37886;53.174;6.368;2023-07-29T02:00:52;856.55;;;707.75;;
51838;SDS011;37886;53.174;6.368;2023-07-29T02:03:18;781.17;;;670.85;;
51838;SDS011;37886;53.174;6.368;2023-07-29T02:05:43;801.65;;;676.00;;
51838;SDS011;37886;53.174;6.368;2023-07-29T02:08:10;794.80;;;659.03;;
51838;SDS011;37886;53.174;6.368;2023-07-29T02:10:36;808.40;;;658.58;;
51838;SDS011;37886;53.174;6.368;2023-07-29T02:13:02;894.88;;;720.28;;
51838;SDS011;37886;53.174;6.368;2023-07-29T02:15:29;740.28;;;652.92;;
51838;SDS011;37886;53.174;6.368;2023-07-29T02:17:55;810.25;;;689.70;;
51838;SDS011;37886;53.174;6.368;2023-07-29T02:20:20;865.33;;;699.38;;
51838;SDS011;37886;53.174;6.368;2023-07-29T02:22:46;805.90;;;672.42;;
51838;SDS011;37886;53.174;6.368;2023-07-29T02:25:13;708.47;;;630.75;;
51838;SDS011;37886;53.174;6.368;2023-07-29T02:27:39;833.10;;;697.47;;
51838;SDS011;37886;53.174;6.368;2023-07-29T02:30:05;844.90;;;685.30;;
51838;SDS011;37886;53.174;6.368;2023-07-29T02:32:31;850.13;;;684.90;;
51838;SDS011;37886;53.174;6.368;2023-07-29T02:34:57;827.50;;;675.17;;
51838;SDS011;37886;53.174;6.368;2023-07-29T02:37:23;956.50;;;713.30;;
51838;SDS011;37886;53.174;6.368;2023-07-29T02:39:48;1058.10;;;758.72;;
51838;SDS011;37886;53.174;6.368;2023-07-29T02:42:14;842.17;;;685.42;;
51838;SDS011;37886;53.174;6.368;2023-07-29T02:44:40;948.10;;;703.10;;
51838;SDS011;37886;53.174;6.368;2023-07-29T02:47:06;867.58;;;690.10;;
51838;SDS011;37886;53.174;6.368;2023-07-29T02:49:32;871.40;;;697.67;;
51838;SDS011;37886;53.174;6.368;2023-07-29T02:51:57;801.45;;;692.85;;
51838;SDS011;37886;53.174;6.368;2023-07-29T02:54:23;842.08;;;678.05;;
51838;SDS011;37886;53.174;6.368;2023-07-29T02:56:49;835.20;;;686.60;;
51838;SDS011;37886;53.174;6.368;2023-07-29T02:59:15;925.65;;;720.60;;
51838;SDS011;37886;53.174;6.368;2023-07-29T03:01:41;829.00;;;670.60;;
51838;SDS011;37886;53.174;6.368;2023-07-29T03:04:07;932.80;;;718.22;;
51838;SDS011;37886;53.174;6.368;2023-07-29T03:06:33;957.70;;;719.58;;
51838;SDS011;37886;53.174;6.368;2023-07-29T03:08:58;855.58;;;688.65;;
51838;SDS011;37886;53.174;6.368;2023-07-29T03:11:24;787.67;;;665.28;;
51838;SDS011;37886;53.174;6.368;2023-07-29T03:13:50;798.97;;;664.30;;
51838;SDS011;37886;53.174;6.368;2023-07-29T03:16:17;829.47;;;679.15;;
51838;SDS011;37886;53.174;6.368;2023-07-29T03:18:43;915.13;;;718.83;;
51838;SDS011;37886;53.174;6.368;2023-07-29T03:21:10;861.25;;;659.72;;
51838;SDS011;37886;53.174;6.368;2023-07-29T03:23:36;881.95;;;688.95;;
51838;SDS011;37886;53.174;6.368;2023-07-29T03:26:03;898.67;;;689.92;;
51838;SDS011;37886;53.174;6.368;2023-07-29T03:28:36;920.72;;;704.60;;
51838;SDS011;37886;53.174;6.368;2023-07-29T03:31:06;920.60;;;708.63;;
51838;SDS011;37886;53.174;6.368;2023-07-29T03:33:32;899.67;;;691.65;;
51838;SDS011;37886;53.174;6.368;2023-07-29T03:35:58;950.80;;;705.17;;
51838;SDS011;37886;53.174;6.368;2023-07-29T03:38:24;971.05;;;717.50;;
51838;SDS011;37886;53.174;6.368;2023-07-29T03:40:50;984.30;;;719.70;;
51838;SDS011;37886;53.174;6.368;2023-07-29T03:43:15;880.60;;;673.10;;
51838;SDS011;37886;53.174;6.368;2023-07-29T03:45:41;848.67;;;664.53;;
51838;SDS011;37886;53.174;6.368;2023-07-29T03:48:07;913.65;;;685.88;;
51838;SDS011;37886;53.174;6.368;2023-07-29T03:50:33;983.72;;;717.83;;
51838;SDS011;37886;53.174;6.368;2023-07-29T03:53:01;962.28;;;703.90;;
51838;SDS011;37886;53.174;6.368;2023-07-29T03:55:27;1049.53;;;742.92;;
51838;SDS011;37886;53.174;6.368;2023-07-29T03:57:55;1009.03;;;734.75;;
51838;SDS011;37886;53.174;6.368;2023-07-29T04:00:24;1003.20;;;717.65;;
51838;SDS011;37886;53.174;6.368;2023-07-29T04:02:51;993.55;;;724.63;;
51838;SDS011;37886;53.174;6.368;2023-07-29T04:05:16;952.50;;;703.45;;
51838;SDS011;37886;53.174;6.368;2023-07-29T04:07:42;985.95;;;708.35;;
51838;SDS011;37886;53.174;6.368;2023-07-29T04:10:08;965.00;;;699.50;;
51838;SDS011;37886;53.174;6.368;2023-07-29T04:12:34;1031.45;;;734.58;;
51838;SDS011;37886;53.174;6.368;2023-07-29T04:15:00;1028.18;;;738.85;;
51838;SDS011;37886;53.174;6.368;2023-07-29T04:17:26;1063.80;;;739.97;;
51838;SDS011;37886;53.174;6.368;2023-07-29T04:19:52;981.45;;;720.78;;
51838;SDS011;37886;53.174;6.368;2023-07-29T04:22:17;1032.72;;;742.72;;
51838;SDS011;37886;53.174;6.368;2023-07-29T04:24:43;1050.00;;;736.67;;
51838;SDS011;37886;53.174;6.368;2023-07-29T04:27:09;1065.65;;;749.53;;
51838;SDS011;37886;53.174;6.368;2023-07-29T04:29:35;992.58;;;710.65;;
51838;SDS011;37886;53.174;6.368;2023-07-29T04:32:01;1019.25;;;730.22;;
51838;SDS011;37886;53.174;6.368;2023-07-29T04:34:27;944.88;;;704.58;;
51838;SDS011;37886;53.174;6.368;2023-07-29T04:36:53;1039.32;;;750.92;;
51838;SDS011;37886;53.174;6.368;2023-07-29T04:39:19;1009.70;;;733.08;;
51838;SDS011;37886;53.174;6.368;2023-07-29T04:41:45;1059.53;;;749.55;;
51838;SDS011;37886;53.174;6.368;2023-07-29T04:44:11;1002.97;;;730.53;;
51838;SDS011;37886;53.174;6.368;2023-07-29T04:46:36;1036.80;;;745.70;;
51838;SDS011;37886;53.174;6.368;2023-07-29T04:49:03;1104.90;;;779.67;;
51838;SDS011;37886;53.174;6.368;2023-07-29T04:51:29;1032.97;;;737.00;;
51838;SDS011;37886;53.174;6.368;2023-07-29T04:53:56;999.70;;;731.55;;
51838;SDS011;37886;53.174;6.368;2023-07-29T04:56:22;903.10;;;681.85;;
51838;SDS011;37886;53.174;6.368;2023-07-29T04:58:48;901.28;;;684.33;;
51838;SDS011;37886;53.174;6.368;2023-07-29T05:01:14;989.95;;;720.80;;
51838;SDS011;37886;53.174;6.368;2023-07-29T05:03:39;989.35;;;709.80;;
51838;SDS011;37886;53.174;6.368;2023-07-29T05:06:05;1003.88;;;725.75;;
51838;SDS011;37886;53.174;6.368;2023-07-29T05:08:31;962.60;;;716.42;;
51838;SDS011;37886;53.174;6.368;2023-07-29T05:10:57;898.17;;;682.83;;
51838;SDS011;37886;53.174;6.368;2023-07-29T05:13:23;843.83;;;699.25;;
51838;SDS011;37886;53.174;6.368;2023-07-29T05:15:49;857.40;;;714.53;;
51838;SDS011;37886;53.174;6.368;2023-07-29T05:18:15;785.45;;;665.05;;
51838;SDS011;37886;53.174;6.368;2023-07-29T05:20:42;934.60;;;734.63;;
51838;SDS011;37886;53.174;6.368;2023-07-29T05:23:08;817.10;;;711.42;;
51838;SDS011;37886;53.174;6.368;2023-07-29T05:25:33;786.45;;;696.10;;
51838;SDS011;37886;53.174;6.368;2023-07-29T05:28:02;751.70;;;669.45;;
51838;SDS011;37886;53.174;6.368;2023-07-29T05:30:28;685.75;;;616.60;;
51838;SDS011;37886;53.174;6.368;2023-07-29T05:32:59;708.35;;;636.80;;
51838;SDS011;37886;53.174;6.368;2023-07-29T05:35:25;704.65;;;632.20;;
51838;SDS011;37886;53.174;6.368;2023-07-29T05:37:51;693.25;;;622.58;;
51838;SDS011;37886;53.174;6.368;2023-07-29T05:40:16;776.53;;;692.35;;
51838;SDS011;37886;53.174;6.368;2023-07-29T05:42:42;699.60;;;628.10;;
51838;SDS011;37886;53.174;6.368;2023-07-29T05:45:10;764.13;;;682.45;;
51838;SDS011;37886;53.174;6.368;2023-07-29T05:47:35;755.83;;;674.58;;
51838;SDS011;37886;53.174;6.368;2023-07-29T05:50:02;808.17;;;716.50;;
51838;SDS011;37886;53.174;6.368;2023-07-29T05:52:29;763.35;;;681.25;;
51838;SDS011;37886;53.174;6.368;2023-07-29T05:54:56;654.92;;;592.50;;
51838;SDS011;37886;53.174;6.368;2023-07-29T05:57:21;674.03;;;606.50;;
51838;SDS011;37886;53.174;6.368;2023-07-29T05:59:47;712.97;;;641.80;;
51838;SDS011;37886;53.174;6.368;2023-07-29T06:02:13;680.15;;;614.92;;
51838;SDS011;37886;53.174;6.368;2023-07-29T06:04:39;686.88;;;618.90;;
51838;SDS011;37886;53.174;6.368;2023-07-29T06:07:05;754.45;;;674.35;;
51838;SDS011;37886;53.174;6.368;2023-07-29T06:09:31;765.67;;;682.97;;
51838;SDS011;37886;53.174;6.368;2023-07-29T06:11:56;734.78;;;657.85;;
51838;SDS011;37886;53.174;6.368;2023-07-29T06:14:22;699.83;;;624.58;;
51838;SDS011;37886;53.174;6.368;2023-07-29T06:16:48;680.03;;;610.55;;
51838;SDS011;37886;53.174;6.368;2023-07-29T06:19:13;711.55;;;637.13;;
51838;SDS011;37886;53.174;6.368;2023-07-29T06:21:39;693.28;;;621.95;;
51838;SDS011;37886;53.174;6.368;2023-07-29T06:24:05;680.35;;;609.97;;
51838;SDS011;37886;53.174;6.368;2023-07-29T06:26:30;669.78;;;604.03;;
51838;SDS011;37886;53.174;6.368;2023-07-29T06:28:56;694.47;;;623.45;;
51838;SDS011;37886;53.174;6.368;2023-07-29T06:31:22;678.13;;;610.92;;
51838;SDS011;37886;53.174;6.368;2023-07-29T06:33:47;742.47;;;660.35;;
51838;SDS011;37886;53.174;6.368;2023-07-29T06:36:13;720.00;;;643.35;;
51838;SDS011;37886;53.174;6.368;2023-07-29T06:38:39;713.58;;;636.42;;
51838;SDS011;37886;53.174;6.368;2023-07-29T06:41:06;694.17;;;620.33;;
51838;SDS011;37886;53.174;6.368;2023-07-29T06:43:31;693.33;;;620.45;;
51838;SDS011;37886;53.174;6.368;2023-07-29T06:45:57;757.70;;;674.15;;
51838;SDS011;37886;53.174;6.368;2023-07-29T06:48:23;723.58;;;640.25;;
51838;SDS011;37886;53.174;6.368;2023-07-29T06:50:49;733.10;;;649.90;;
51838;SDS011;37886;53.174;6.368;2023-07-29T06:53:15;701.65;;;625.60;;
51838;SDS011;37886;53.174;6.368;2023-07-29T06:55:41;732.65;;;649.58;;
51838;SDS011;37886;53.174;6.368;2023-07-29T06:58:07;731.20;;;650.50;;
51838;SDS011;37886;53.174;6.368;2023-07-29T07:00:33;789.35;;;672.88;;
51838;SDS011;37886;53.174;6.368;2023-07-29T07:02:59;771.67;;;644.13;;
51838;SDS011;37886;53.174;6.368;2023-07-29T07:05:24;732.55;;;650.15;;
51838;SDS011;37886;53.174;6.368;2023-07-29T07:07:50;695.60;;;621.30;;
51838;SDS011;37886;53.174;6.368;2023-07-29T07:10:16;770.47;;;650.28;;
51838;SDS011;37886;53.174;6.368;2023-07-29T07:12:41;848.65;;;670.60;;
51838;SDS011;37886;53.174;6.368;2023-07-29T07:15:07;696.33;;;624.25;;
51838;SDS011;37886;53.174;6.368;2023-07-29T07:17:33;790.05;;;654.22;;
51838;SDS011;37886;53.174;6.368;2023-07-29T07:19:59;766.45;;;658.95;;
51838;SDS011;37886;53.174;6.368;2023-07-29T07:22:24;756.53;;;663.55;;
51838;SDS011;37886;53.174;6.368;2023-07-29T07:24:50;839.47;;;694.22;;
51838;SDS011;37886;53.174;6.368;2023-07-29T07:27:16;837.08;;;677.22;;
51838;SDS011;37886;53.174;6.368;2023-07-29T07:29:41;776.78;;;671.55;;
51838;SDS011;37886;53.174;6.368;2023-07-29T07:32:07;749.85;;;642.80;;
51838;SDS011;37886;53.174;6.368;2023-07-29T07:34:33;817.53;;;645.00;;
51838;SDS011;37886;53.174;6.368;2023-07-29T07:36:59;803.80;;;647.10;;
51838;SDS011;37886;53.174;6.368;2023-07-29T07:39:25;666.90;;;594.63;;
51838;SDS011;37886;53.174;6.368;2023-07-29T07:41:51;801.35;;;606.47;;
51838;SDS011;37886;53.174;6.368;2023-07-29T07:44:17;758.20;;;640.08;;
51838;SDS011;37886;53.174;6.368;2023-07-29T07:46:44;713.45;;;633.55;;
51838;SDS011;37886;53.174;6.368;2023-07-29T07:49:10;771.85;;;635.17;;
51838;SDS011;37886;53.174;6.368;2023-07-29T07:51:37;823.92;;;659.63;;
51838;SDS011;37886;53.174;6.368;2023-07-29T07:54:03;638.00;;;567.55;;
51838;SDS011;37886;53.174;6.368;2023-07-29T07:56:29;669.25;;;531.35;;
51838;SDS011;37886;53.174;6.368;2023-07-29T07:58:54;688.55;;;578.53;;
51838;SDS011;37886;53.174;6.368;2023-07-29T08:01:20;634.92;;;568.85;;
51838;SDS011;37886;53.174;6.368;2023-07-29T08:03:46;698.47;;;566.65;;
51838;SDS011;37886;53.174;6.368;2023-07-29T08:06:11;655.30;;;553.85;;
51838;SDS011;37886;53.174;6.368;2023-07-29T08:08:37;571.70;;;510.92;;
51838;SDS011;37886;53.174;6.368;2023-07-29T08:11:03;632.83;;;559.42;;
51838;SDS011;37886;53.174;6.368;2023-07-29T08:13:28;635.55;;;572.97;;
51838;SDS011;37886;53.174;6.368;2023-07-29T08:15:54;590.60;;;535.45;;
51838;SDS011;37886;53.174;6.368;2023-07-29T08:18:20;584.90;;;523.38;;
51838;SDS011;37886;53.174;6.368;2023-07-29T08:20:52;627.30;;;568.05;;
51838;SDS011;37886;53.174;6.368;2023-07-29T08:23:28;643.75;;;580.47;;
51838;SDS011;37886;53.174;6.368;2023-07-29T08:25:58;503.87;;;450.23;;
51838;SDS011;37886;53.174;6.368;2023-07-29T08:28:28;512.13;;;459.15;;
51838;SDS011;37886;53.174;6.368;2023-07-29T08:30:55;598.25;;;541.28;;
51838;SDS011;37886;53.174;6.368;2023-07-29T08:33:21;721.05;;;658.58;;
51838;SDS011;37886;53.174;6.368;2023-07-29T08:35:46;569.85;;;499.52;;
51838;SDS011;37886;53.174;6.368;2023-07-29T08:38:12;746.45;;;679.55;;
51838;SDS011;37886;53.174;6.368;2023-07-29T08:40:42;694.92;;;636.40;;
51838;SDS011;37886;53.174;6.368;2023-07-29T08:43:10;722.95;;;662.40;;
51838;SDS011;37886;53.174;6.368;2023-07-29T08:45:39;552.28;;;502.52;;
51838;SDS011;37886;53.174;6.368;2023-07-29T08:48:08;742.67;;;680.47;;
51838;SDS011;37886;53.174;6.368;2023-07-29T08:50:35;734.97;;;674.72;;
51838;SDS011;37886;53.174;6.368;2023-07-29T08:53:05;625.22;;;567.38;;
51838;SDS011;37886;53.174;6.368;2023-07-29T08:55:31;720.85;;;662.55;;
51838;SDS011;37886;53.174;6.368;2023-07-29T08:57:58;762.97;;;701.05;;
51838;SDS011;37886;53.174;6.368;2023-07-29T09:00:25;630.13;;;575.80;;
51838;SDS011;37886;53.174;6.368;2023-07-29T09:02:51;629.42;;;577.35;;
51838;SDS011;37886;53.174;6.368;2023-07-29T09:05:17;609.17;;;556.70;;
51838;SDS011;37886;53.174;6.368;2023-07-29T09:07:43;600.40;;;550.60;;
51838;SDS011;37886;53.174;6.368;2023-07-29T09:10:11;713.20;;;654.47;;
51838;SDS011;37886;53.174;6.368;2023-07-29T09:12:38;762.85;;;698.10;;
51838;SDS011;37886;53.174;6.368;2023-07-29T09:15:04;756.28;;;692.15;;
51838;SDS011;37886;53.174;6.368;2023-07-29T09:17:31;712.55;;;653.88;;
51838;SDS011;37886;53.174;6.368;2023-07-29T09:20:00;694.65;;;638.80;;
51838;SDS011;37886;53.174;6.368;2023-07-29T09:22:26;666.28;;;612.25;;
51838;SDS011;37886;53.174;6.368;2023-07-29T09:24:52;741.85;;;674.33;;
51838;SDS011;37886;53.174;6.368;2023-07-29T09:27:25;656.28;;;603.33;;
51838;SDS011;37886;53.174;6.368;2023-07-29T09:29:57;587.13;;;537.90;;
51838;SDS011;37886;53.174;6.368;2023-07-29T09:32:23;681.88;;;627.97;;
51838;SDS011;37886;53.174;6.368;2023-07-29T09:34:49;634.58;;;583.05;;
51838;SDS011;37886;53.174;6.368;2023-07-29T09:37:24;683.53;;;626.58;;
51838;SDS011;37886;53.174;6.368;2023-07-29T09:39:51;557.83;;;508.17;;
51838;SDS011;37886;53.174;6.368;2023-07-29T09:42:20;594.72;;;546.78;;
51838;SDS011;37886;53.174;6.368;2023-07-29T09:44:48;663.80;;;609.75;;
51838;SDS011;37886;53.174;6.368;2023-07-29T09:47:22;647.97;;;595.35;;
51838;SDS011;37886;53.174;6.368;2023-07-29T09:49:49;705.80;;;643.08;;
51838;SDS011;37886;53.174;6.368;2023-07-29T09:52:16;676.85;;;620.67;;
51838;SDS011;37886;53.174;6.368;2023-07-29T09:54:43;669.30;;;615.95;;
51838;SDS011;37886;53.174;6.368;2023-07-29T09:57:10;707.20;;;650.28;;
51838;SDS011;37886;53.174;6.368;2023-07-29T09:59:36;570.45;;;521.88;;
51838;SDS011;37886;53.174;6.368;2023-07-29T10:02:02;591.72;;;543.50;;
51838;SDS011;37886;53.174;6.368;2023-07-29T10:04:28;743.80;;;684.00;;
51838;SDS011;37886;53.174;6.368;2023-07-29T10:06:54;605.90;;;553.05;;
51838;SDS011;37886;53.174;6.368;2023-07-29T10:09:22;587.20;;;537.33;;
51838;SDS011;37886;53.174;6.368;2023-07-29T10:11:49;638.30;;;585.17;;
51838;SDS011;37886;53.174;6.368;2023-07-29T10:14:15;598.15;;;549.92;;
51838;SDS011;37886;53.174;6.368;2023-07-29T10:16:42;588.65;;;538.70;;
51838;SDS011;37886;53.174;6.368;2023-07-29T10:19:11;666.80;;;609.15;;
51838;SDS011;37886;53.174;6.368;2023-07-29T10:21:39;643.20;;;584.45;;
51838;SDS011;37886;53.174;6.368;2023-07-29T10:24:11;682.08;;;623.00;;
51838;SDS011;37886;53.174;6.368;2023-07-29T10:26:44;646.25;;;592.05;;
51838;SDS011;37886;53.174;6.368;2023-07-29T10:29:12;601.67;;;547.30;;
51838;SDS011;37886;53.174;6.368;2023-07-29T10:31:40;598.13;;;548.70;;
51838;SDS011;37886;53.174;6.368;2023-07-29T10:34:09;693.05;;;623.78;;
51838;SDS011;37886;53.174;6.368;2023-07-29T10:36:35;662.22;;;606.88;;
51838;SDS011;37886;53.174;6.368;2023-07-29T10:39:02;504.02;;;455.85;;
51838;SDS011;37886;53.174;6.368;2023-07-29T10:47:16;589.13;;;537.55;;
51838;SDS011;37886;53.174;6.368;2023-07-29T10:49:47;484.67;;;444.42;;
51838;SDS011;37886;53.174;6.368;2023-07-29T10:55:01;672.28;;;619.47;;
51838;SDS011;37886;53.174;6.368;2023-07-29T10:57:46;663.13;;;608.38;;
51838;SDS011;37886;53.174;6.368;2023-07-29T11:00:12;498.15;;;452.05;;
51838;SDS011;37886;53.174;6.368;2023-07-29T11:02:41;618.92;;;564.40;;
51838;SDS011;37886;53.174;6.368;2023-07-29T11:05:07;662.22;;;604.83;;
51838;SDS011;37886;53.174;6.368;2023-07-29T11:07:45;623.70;;;563.05;;
51838;SDS011;37886;53.174;6.368;2023-07-29T11:10:12;710.45;;;649.65;;
51838;SDS011;37886;53.174;6.368;2023-07-29T11:12:46;605.92;;;547.25;;
51838;SDS011;37886;53.174;6.368;2023-07-29T11:15:15;660.97;;;596.15;;
51838;SDS011;37886;53.174;6.368;2023-07-29T11:20:20;860.97;;;668.50;;
51838;SDS011;37886;53.174;6.368;2023-07-29T11:22:49;771.15;;;688.95;;
51838;SDS011;37886;53.174;6.368;2023-07-29T11:25:15;809.15;;;684.28;;
51838;SDS011;37886;53.174;6.368;2023-07-29T11:27:42;702.55;;;626.15;;
51838;SDS011;37886;53.174;6.368;2023-07-29T11:30:10;665.25;;;603.63;;
51838;SDS011;37886;53.174;6.368;2023-07-29T11:32:37;757.97;;;686.92;;
51838;SDS011;37886;53.174;6.368;2023-07-29T11:35:04;748.75;;;679.00;;
51838;SDS011;37886;53.174;6.368;2023-07-29T11:37:32;766.28;;;689.10;;
51838;SDS011;37886;53.174;6.368;2023-07-29T11:40:02;699.00;;;639.28;;
51838;SDS011;37886;53.174;6.368;2023-07-29T11:42:31;1612.97;;;879.63;;
51838;SDS011;37886;53.174;6.368;2023-07-29T11:44:59;670.13;;;607.08;;
51838;SDS011;37886;53.174;6.368;2023-07-29T11:47:25;682.08;;;620.92;;
51838;SDS011;37886;53.174;6.368;2023-07-29T11:49:51;593.35;;;532.40;;
51838;SDS011;37886;53.174;6.368;2023-07-29T11:52:17;618.60;;;562.35;;
51838;SDS011;37886;53.174;6.368;2023-07-29T11:54:45;596.38;;;539.63;;
51838;SDS011;37886;53.174;6.368;2023-07-29T11:57:13;729.67;;;655.17;;
51838;SDS011;37886;53.174;6.368;2023-07-29T11:59:40;903.15;;;699.70;;
51838;SDS011;37886;53.174;6.368;2023-07-29T12:02:16;680.33;;;608.20;;
51838;SDS011;37886;53.174;6.368;2023-07-29T12:04:43;506.33;;;458.85;;
51838;SDS011;37886;53.174;6.368;2023-07-29T12:07:11;631.08;;;566.25;;
51838;SDS011;37886;53.174;6.368;2023-07-29T12:09:39;670.63;;;612.17;;
51838;SDS011;37886;53.174;6.368;2023-07-29T12:12:05;725.03;;;662.53;;
51838;SDS011;37886;53.174;6.368;2023-07-29T12:14:32;633.83;;;576.00;;
51838;SDS011;37886;53.174;6.368;2023-07-29T12:17:02;704.78;;;643.72;;
51838;SDS011;37886;53.174;6.368;2023-07-29T12:19:33;732.60;;;664.03;;
51838;SDS011;37886;53.174;6.368;2023-07-29T12:22:01;594.47;;;544.28;;
51838;SDS011;37886;53.174;6.368;2023-07-29T12:24:35;696.17;;;637.38;;
51838;SDS011;37886;53.174;6.368;2023-07-29T12:27:06;621.97;;;566.50;;
51838;SDS011;37886;53.174;6.368;2023-07-29T12:29:40;573.17;;;524.08;;
51838;SDS011;37886;53.174;6.368;2023-07-29T12:32:07;671.38;;;613.63;;
51838;SDS011;37886;53.174;6.368;2023-07-29T12:34:33;718.65;;;650.25;;
51838;SDS011;37886;53.174;6.368;2023-07-29T12:37:01;569.05;;;514.50;;
51838;SDS011;37886;53.174;6.368;2023-07-29T12:39:29;633.33;;;577.88;;
51838;SDS011;37886;53.174;6.368;2023-07-29T12:41:58;698.03;;;636.42;;
51838;SDS011;37886;53.174;6.368;2023-07-29T12:44:25;648.97;;;583.92;;
51838;SDS011;37886;53.174;6.368;2023-07-29T12:46:54;627.97;;;561.53;;
51838;SDS011;37886;53.174;6.368;2023-07-29T12:49:20;729.53;;;648.60;;
51838;SDS011;37886;53.174;6.368;2023-07-29T12:51:47;789.92;;;707.78;;
51838;SDS011;37886;53.174;6.368;2023-07-29T12:54:13;624.92;;;559.08;;
51838;SDS011;37886;53.174;6.368;2023-07-29T12:56:39;540.80;;;486.10;;
51838;SDS011;37886;53.174;6.368;2023-07-29T12:59:05;606.80;;;550.97;;
51838;SDS011;37886;53.174;6.368;2023-07-29T13:01:30;686.05;;;620.50;;
51838;SDS011;37886;53.174;6.368;2023-07-29T13:03:56;502.15;;;451.45;;
51838;SDS011;37886;53.174;6.368;2023-07-29T13:06:22;555.20;;;500.33;;
51838;SDS011;37886;53.174;6.368;2023-07-29T13:08:48;614.42;;;553.67;;
51838;SDS011;37886;53.174;6.368;2023-07-29T13:11:14;640.13;;;572.53;;
51838;SDS011;37886;53.174;6.368;2023-07-29T13:13:41;661.13;;;589.85;;
51838;SDS011;37886;53.174;6.368;2023-07-29T13:16:07;726.28;;;621.25;;
51838;SDS011;37886;53.174;6.368;2023-07-29T13:18:33;997.30;;;746.75;;
51838;SDS011;37886;53.174;6.368;2023-07-29T13:20:59;684.92;;;614.90;;
51838;SDS011;37886;53.174;6.368;2023-07-29T13:23:25;532.97;;;479.73;;
51838;SDS011;37886;53.174;6.368;2023-07-29T13:25:51;731.10;;;653.83;;
51838;SDS011;37886;53.174;6.368;2023-07-29T13:28:17;648.45;;;582.30;;
51838;SDS011;37886;53.174;6.368;2023-07-29T13:30:44;549.42;;;493.38;;
51838;SDS011;37886;53.174;6.368;2023-07-29T13:33:10;624.83;;;566.75;;
51838;SDS011;37886;53.174;6.368;2023-07-29T13:35:36;656.70;;;588.38;;
51838;SDS011;37886;53.174;6.368;2023-07-29T13:38:01;581.60;;;521.58;;
51838;SDS011;37886;53.174;6.368;2023-07-29T13:40:27;480.20;;;437.88;;
51838;SDS011;37886;53.174;6.368;2023-07-29T13:42:53;459.88;;;419.15;;
51838;SDS011;37886;53.174;6.368;2023-07-29T13:45:20;447.75;;;405.00;;
51838;SDS011;37886;53.174;6.368;2023-07-29T13:47:45;585.47;;;533.47;;
51838;SDS011;37886;53.174;6.368;2023-07-29T13:50:11;641.72;;;588.42;;
51838;SDS011;37886;53.174;6.368;2023-07-29T13:52:37;679.10;;;611.55;;
51838;SDS011;37886;53.174;6.368;2023-07-29T13:55:03;685.08;;;614.55;;
51838;SDS011;37886;53.174;6.368;2023-07-29T13:57:30;673.72;;;603.03;;
51838;SDS011;37886;53.174;6.368;2023-07-29T13:59:56;680.13;;;612.05;;
51838;SDS011;37886;53.174;6.368;2023-07-29T14:02:22;661.60;;;603.10;;
51838;SDS011;37886;53.174;6.368;2023-07-29T14:04:48;617.40;;;563.85;;
51838;SDS011;37886;53.174;6.368;2023-07-29T14:07:14;597.88;;;546.83;;
51838;SDS011;37886;53.174;6.368;2023-07-29T14:09:40;545.17;;;490.70;;
51838;SDS011;37886;53.174;6.368;2023-07-29T14:12:08;559.83;;;509.10;;